createdAt,value
2018-10-21T00:00:44.629Z,99.90
2018-10-21T00:03:13.091Z,99.90
2018-10-21T00:05:41.445Z,99.90
2018-10-21T00:08:09.857Z,99.90
2018-10-21T00:10:38.364Z,99.90
2018-10-21T00:13:06.894Z,99.90
2018-10-21T00:15:35.477Z,99.90
2018-10-21T00:18:03.614Z,99.90
2018-10-21T00:20:32.015Z,99.90
2018-10-21T00:23:00.412Z,99.90
2018-10-21T00:25:28.798Z,99.90
2018-10-21T00:27:57.408Z,99.90
2018-10-21T00:30:25.808Z,99.90
2018-10-21T00:32:54.209Z,99.90
2018-10-21T00:35:22.565Z,99.90
2018-10-21T00:37:50.958Z,99.90
2018-10-21T00:40:19.395Z,99.90
2018-10-21T00:42:47.785Z,99.90
2018-10-21T00:45:16.194Z,99.90
2018-10-21T00:47:44.573Z,99.90
2018-10-21T00:50:12.991Z,99.90
2018-10-21T00:52:41.351Z,99.90
2018-10-21T00:55:10.595Z,99.90
2018-10-21T00:57:39.256Z,99.90
2018-10-21T01:00:09.738Z,99.90
2018-10-21T01:02:38.435Z,99.90
2018-10-21T01:05:07.857Z,99.90
2018-10-21T01:07:36.317Z,99.90
2018-10-21T01:10:05.456Z,99.90
2018-10-21T01:12:33.835Z,99.90
2018-10-21T01:15:02.247Z,99.90
2018-10-21T01:17:30.629Z,99.90
2018-10-21T01:19:59.005Z,99.90
2018-10-21T01:22:27.428Z,99.90
2018-10-21T01:24:55.847Z,99.90
2018-10-21T01:27:24.288Z,99.90
2018-10-21T01:29:52.660Z,99.90
2018-10-21T01:32:21.019Z,99.90
2018-10-21T01:34:49.395Z,99.90
2018-10-21T01:37:17.869Z,99.90
2018-10-21T01:40:49.859Z,99.90
2018-10-21T01:43:19.469Z,99.90
2018-10-21T01:45:47.845Z,99.90
2018-10-21T01:48:17.427Z,99.90
2018-10-21T01:50:45.786Z,99.90
2018-10-21T01:53:15.121Z,99.90
2018-10-21T01:55:43.461Z,99.90
2018-10-21T01:58:11.832Z,99.90
2018-10-21T02:00:40.804Z,99.90
2018-10-21T02:03:09.316Z,99.90
2018-10-21T02:05:38.025Z,99.90
2018-10-21T02:08:06.854Z,99.90
2018-10-21T02:10:35.166Z,99.90
2018-10-21T02:13:03.578Z,99.90
2018-10-21T02:15:31.931Z,99.90
2018-10-21T02:18:00.344Z,99.90
2018-10-21T02:20:28.926Z,99.90
2018-10-21T02:22:57.303Z,99.90
2018-10-21T02:25:25.692Z,99.90
2018-10-21T02:27:54.372Z,99.90
2018-10-21T02:30:25.830Z,99.90
2018-10-21T02:32:54.694Z,99.90
2018-10-21T02:35:23.220Z,99.90
2018-10-21T02:37:52.009Z,99.90
2018-10-21T02:41:32.746Z,99.90
2018-10-21T02:44:01.264Z,99.90
2018-10-21T02:46:30.028Z,99.90
2018-10-21T02:48:59.180Z,99.90
2018-10-21T02:51:27.549Z,99.90
2018-10-21T02:53:55.962Z,99.90
2018-10-21T02:56:24.397Z,99.90
2018-10-21T02:58:52.932Z,99.90
2018-10-21T03:01:21.305Z,99.90
2018-10-21T03:03:49.717Z,99.90
2018-10-21T03:06:18.099Z,99.90
2018-10-21T03:08:46.437Z,99.90
2018-10-21T03:11:14.825Z,99.90
2018-10-21T03:13:43.332Z,99.90
2018-10-21T03:16:11.695Z,99.90
2018-10-21T03:18:40.064Z,99.90
2018-10-21T03:21:08.441Z,99.90
2018-10-21T03:23:36.848Z,99.90
2018-10-21T03:26:05.267Z,99.90
2018-10-21T03:28:34.104Z,99.90
2018-10-21T03:31:02.693Z,99.90
2018-10-21T03:33:31.571Z,99.90
2018-10-21T03:35:59.862Z,99.90
2018-10-21T03:38:28.284Z,99.90
2018-10-21T03:40:56.656Z,99.90
2018-10-21T03:43:25.086Z,99.90
2018-10-21T03:45:53.468Z,99.90
2018-10-21T03:48:21.915Z,99.90
2018-10-21T03:50:50.278Z,99.90
2018-10-21T03:53:18.684Z,99.90
2018-10-21T03:55:47.057Z,99.90
2018-10-21T03:58:15.491Z,99.90
2018-10-21T04:00:43.852Z,99.90
2018-10-21T04:03:12.247Z,99.90
2018-10-21T04:05:40.630Z,99.90
2018-10-21T04:08:09.049Z,99.90
2018-10-21T04:10:37.468Z,99.90
2018-10-21T04:13:05.900Z,99.90
2018-10-21T04:15:34.358Z,99.90
2018-10-21T04:18:02.764Z,99.90
2018-10-21T04:20:31.120Z,99.90
2018-10-21T04:23:00.656Z,99.90
2018-10-21T04:25:30.220Z,99.90
2018-10-21T04:27:59.492Z,99.90
2018-10-21T04:30:42.781Z,99.90
2018-10-21T04:33:14.448Z,99.90
2018-10-21T04:35:43.061Z,99.90
2018-10-21T04:38:31.523Z,99.90
2018-10-21T04:40:59.913Z,99.90
2018-10-21T04:43:28.280Z,99.90
2018-10-21T04:45:56.689Z,99.90
2018-10-21T04:48:25.096Z,99.90
2018-10-21T04:50:53.487Z,99.90
2018-10-21T04:53:21.919Z,99.90
2018-10-21T04:55:50.291Z,99.90
2018-10-21T04:58:18.643Z,99.90
2018-10-21T05:00:47.111Z,99.90
2018-10-21T05:03:15.510Z,99.90
2018-10-21T05:05:43.862Z,99.90
2018-10-21T05:08:12.236Z,99.90
2018-10-21T05:10:40.617Z,99.90
2018-10-21T05:13:09.867Z,99.90
2018-10-21T05:15:39.336Z,99.90
2018-10-21T05:18:07.825Z,99.90
2018-10-21T05:20:36.183Z,99.90
2018-10-21T05:23:04.722Z,99.90
2018-10-21T05:25:33.096Z,99.90
2018-10-21T05:28:01.578Z,99.90
2018-10-21T05:30:29.968Z,99.90
2018-10-21T05:32:58.365Z,99.90
2018-10-21T05:35:26.811Z,99.90
2018-10-21T05:37:55.495Z,99.90
2018-10-21T05:40:23.938Z,99.90
2018-10-21T05:42:52.475Z,99.90
2018-10-21T05:45:20.847Z,99.90
2018-10-21T05:47:49.367Z,99.90
2018-10-21T05:50:18.034Z,99.90
2018-10-21T05:52:46.485Z,99.90
2018-10-21T05:55:15.558Z,99.90
2018-10-21T05:57:43.951Z,99.90
2018-10-21T06:00:14.897Z,99.90
2018-10-21T06:02:43.626Z,99.90
2018-10-21T06:05:23.365Z,99.90
2018-10-21T06:07:51.762Z,99.90
2018-10-21T06:10:20.144Z,99.90
2018-10-21T06:12:48.556Z,99.90
2018-10-21T06:15:17.200Z,99.90
2018-10-21T06:17:46.719Z,99.90
2018-10-21T06:20:31.039Z,99.90
2018-10-21T06:22:59.524Z,99.90
2018-10-21T06:25:27.893Z,99.90
2018-10-21T06:27:56.309Z,99.90
2018-10-21T06:30:24.652Z,99.90
2018-10-21T06:32:53.065Z,99.90
2018-10-21T06:35:21.441Z,99.90
2018-10-21T06:37:50.001Z,99.90
2018-10-21T06:40:18.479Z,99.90
2018-10-21T06:42:46.933Z,99.90
2018-10-21T06:45:15.416Z,99.90
2018-10-21T06:47:43.719Z,99.90
2018-10-21T06:50:15.028Z,99.90
2018-10-21T06:52:43.427Z,99.90
2018-10-21T06:55:12.207Z,99.90
2018-10-21T06:57:40.748Z,99.90
2018-10-21T07:00:09.344Z,99.90
2018-10-21T07:02:37.784Z,99.90
2018-10-21T07:05:16.139Z,99.90
2018-10-21T07:07:44.515Z,99.90
2018-10-21T07:10:12.983Z,99.90
2018-10-21T07:12:41.602Z,99.90
2018-10-21T07:15:10.063Z,99.90
2018-10-21T07:17:38.505Z,99.90
2018-10-21T07:20:07.001Z,99.90
2018-10-21T07:22:35.365Z,99.90
2018-10-21T07:25:03.768Z,99.90
2018-10-21T07:27:32.201Z,99.90
2018-10-21T07:30:00.585Z,99.90
2018-10-21T07:32:28.973Z,99.90
2018-10-21T07:34:57.388Z,99.90
2018-10-21T07:37:25.786Z,99.90
2018-10-21T07:39:54.213Z,99.90
2018-10-21T07:42:22.638Z,99.90
2018-10-21T07:44:51.041Z,99.90
2018-10-21T07:47:19.692Z,99.90
2018-10-21T07:49:48.096Z,99.90
2018-10-21T07:52:16.533Z,99.90
2018-10-21T07:54:46.605Z,99.90
2018-10-21T07:57:16.504Z,99.90
2018-10-21T07:59:45.183Z,99.90
2018-10-21T08:02:13.628Z,99.90
2018-10-21T08:04:42.055Z,99.90
2018-10-21T08:07:21.954Z,99.90
2018-10-21T08:09:50.415Z,99.90
2018-10-21T08:12:18.812Z,99.90
2018-10-21T08:14:47.227Z,99.90
2018-10-21T08:17:15.567Z,99.90
2018-10-21T08:19:43.973Z,99.90
2018-10-21T08:22:12.504Z,99.90
2018-10-21T08:24:40.799Z,99.90
2018-10-21T08:27:09.943Z,99.90
2018-10-21T08:29:38.305Z,99.90
2018-10-21T08:32:06.753Z,99.90
2018-10-21T08:34:35.153Z,99.90
2018-10-21T08:37:03.567Z,99.90
2018-10-21T08:39:31.907Z,99.90
2018-10-21T08:42:00.284Z,99.90
2018-10-21T08:44:28.691Z,99.90
2018-10-21T08:46:57.392Z,99.90
2018-10-21T08:49:25.878Z,99.90
2018-10-21T08:51:54.288Z,99.90
2018-10-21T08:54:22.668Z,99.90
2018-10-21T08:56:51.061Z,99.90
2018-10-21T08:59:19.431Z,99.90
2018-10-21T09:01:47.817Z,99.90
2018-10-21T09:04:16.328Z,99.90
2018-10-21T09:06:44.670Z,99.90
2018-10-21T09:09:12.974Z,99.90
2018-10-21T09:11:41.707Z,99.90
2018-10-21T09:14:10.097Z,99.90
2018-10-21T09:16:38.589Z,99.90
2018-10-21T09:19:07.159Z,99.90
2018-10-21T09:21:35.475Z,99.90
2018-10-21T09:24:03.929Z,99.90
2018-10-21T09:26:32.333Z,99.90
2018-10-21T09:29:00.769Z,99.90
2018-10-21T09:31:29.154Z,99.90
2018-10-21T09:33:57.615Z,99.90
2018-10-21T09:36:25.960Z,98.60
2018-10-21T09:38:54.368Z,96.40
2018-10-21T09:41:22.747Z,97.30
2018-10-21T09:43:51.168Z,99.90
2018-10-21T09:46:19.749Z,99.90
2018-10-21T09:48:48.236Z,99.90
2018-10-21T09:51:16.628Z,99.90
2018-10-21T09:53:45.090Z,99.90
2018-10-21T09:56:13.503Z,99.90
2018-10-21T09:58:41.973Z,99.90
2018-10-21T10:01:15.768Z,99.90
2018-10-21T10:03:44.228Z,97.30
2018-10-21T10:06:12.594Z,98.00
2018-10-21T10:08:41.048Z,97.10
2018-10-21T10:11:09.449Z,97.50
2018-10-21T10:13:37.862Z,97.20
2018-10-21T10:16:06.338Z,96.20
2018-10-21T10:18:34.709Z,96.60
2018-10-21T10:21:03.207Z,96.80
2018-10-21T10:23:31.731Z,96.20
2018-10-21T10:26:00.128Z,95.20
2018-10-21T10:28:28.605Z,94.20
2018-10-21T10:30:57.123Z,94.70
2018-10-21T10:33:25.620Z,94.60
2018-10-21T10:35:54.047Z,93.10
2018-10-21T10:38:22.501Z,91.10
2018-10-21T10:40:50.923Z,90.70
2018-10-21T10:43:19.379Z,91.50
2018-10-21T10:45:47.786Z,92.30
2018-10-21T10:48:16.164Z,91.90
2018-10-21T10:50:44.526Z,90.20
2018-10-21T10:53:13.565Z,90.60
2018-10-21T10:55:47.240Z,90.00
2018-10-21T10:58:16.587Z,87.80
2018-10-21T11:00:44.951Z,89.70
2018-10-21T11:03:13.445Z,87.60
2018-10-21T11:05:41.850Z,91.80
2018-10-21T11:11:00.652Z,97.00
2018-10-21T11:13:29.056Z,99.30
2018-10-21T11:15:57.491Z,99.90
2018-10-21T11:18:25.992Z,98.00
2018-10-21T11:20:54.387Z,96.40
2018-10-21T11:23:22.816Z,97.90
2018-10-21T11:25:51.337Z,99.00
2018-10-21T11:28:20.044Z,99.90
2018-10-21T11:30:48.397Z,97.80
2018-10-21T11:33:16.791Z,96.20
2018-10-21T11:35:45.158Z,95.10
2018-10-21T11:38:13.615Z,97.00
2018-10-21T11:40:42.078Z,98.40
2018-10-21T11:43:10.601Z,99.90
2018-10-21T11:45:39.316Z,98.40
2018-10-21T11:48:07.830Z,97.50
2018-10-21T11:50:36.248Z,99.90
2018-10-21T11:53:04.880Z,99.90
2018-10-21T11:55:37.296Z,99.90
2018-10-21T11:58:08.085Z,99.90
2018-10-21T12:00:36.619Z,99.90
2018-10-21T12:03:05.280Z,99.90
2018-10-21T12:05:33.786Z,98.50
2018-10-21T12:08:02.487Z,95.00
2018-10-21T12:10:31.172Z,94.80
2018-10-21T12:12:59.713Z,93.40
2018-10-21T12:15:28.177Z,92.40
2018-10-21T12:17:56.713Z,93.10
2018-10-21T12:20:25.154Z,92.70
2018-10-21T12:22:54.212Z,91.40
2018-10-21T12:25:22.830Z,92.90
2018-10-21T12:27:51.145Z,91.90
2018-10-21T12:30:19.912Z,95.60
2018-10-21T12:32:48.282Z,93.10
2018-10-21T12:35:16.875Z,92.30
2018-10-21T12:37:45.277Z,91.10
2018-10-21T12:40:13.855Z,94.30
2018-10-21T12:42:42.222Z,95.70
2018-10-21T12:45:11.915Z,94.80
2018-10-21T12:47:40.382Z,95.50
2018-10-21T12:50:09.023Z,95.70
2018-10-21T12:52:37.412Z,94.40
2018-10-21T12:55:07.044Z,93.60
2018-10-21T12:57:35.464Z,95.00
2018-10-21T13:00:04.023Z,96.60
2018-10-21T13:02:32.505Z,96.90
2018-10-21T13:05:01.675Z,98.90
2018-10-21T13:07:30.469Z,98.00
2018-10-21T13:09:58.971Z,98.10
2018-10-21T13:12:27.374Z,98.60
2018-10-21T13:14:55.761Z,97.20
2018-10-21T13:17:24.175Z,96.20
2018-10-21T13:19:52.888Z,98.30
2018-10-21T13:22:21.529Z,97.00
2018-10-21T13:24:49.947Z,98.30
2018-10-21T13:27:18.399Z,99.20
2018-10-21T13:29:46.885Z,99.90
2018-10-21T13:32:15.319Z,99.90
2018-10-21T13:34:43.812Z,99.90
2018-10-21T13:37:12.503Z,99.00
2018-10-21T13:39:40.824Z,99.90
2018-10-21T13:42:09.365Z,99.90
2018-10-21T13:44:37.874Z,99.90
2018-10-21T13:47:06.387Z,99.90
2018-10-21T13:49:34.823Z,99.90
2018-10-21T13:52:03.425Z,99.90
2018-10-21T13:54:31.632Z,99.90
2018-10-21T13:57:00.072Z,99.90
2018-10-21T13:59:28.450Z,99.90
2018-10-21T14:01:56.884Z,99.90
2018-10-21T14:04:25.460Z,99.90
2018-10-21T14:06:54.182Z,99.90
2018-10-21T14:09:22.537Z,99.90
2018-10-21T14:11:51.003Z,99.90
2018-10-21T14:14:19.340Z,99.90
2018-10-21T14:16:47.708Z,99.90
2018-10-21T14:19:16.102Z,99.90
2018-10-21T14:21:44.476Z,99.90
2018-10-21T14:24:12.917Z,99.90
2018-10-21T14:26:41.340Z,99.90
2018-10-21T14:29:09.710Z,99.90
2018-10-21T14:31:38.146Z,99.90
2018-10-21T14:34:06.632Z,99.90
2018-10-21T14:36:35.568Z,99.90
2018-10-21T14:39:06.949Z,99.90
2018-10-21T14:41:35.400Z,99.90
2018-10-21T14:44:03.802Z,99.90
2018-10-21T14:46:32.279Z,99.90
2018-10-21T14:49:00.741Z,99.90
2018-10-21T14:51:29.175Z,99.90
2018-10-21T14:53:57.726Z,99.90
2018-10-21T14:56:26.337Z,99.90
2018-10-21T14:58:54.766Z,99.90
2018-10-21T15:01:23.153Z,99.90
2018-10-21T15:03:51.543Z,99.90
2018-10-21T15:06:20.090Z,99.90
2018-10-21T15:08:48.556Z,99.90
2018-10-21T15:11:16.981Z,99.90
2018-10-21T15:13:45.444Z,99.90
2018-10-21T15:16:14.224Z,99.90
2018-10-21T15:18:42.577Z,99.90
2018-10-21T15:21:10.971Z,99.90
2018-10-21T15:23:39.482Z,99.90
2018-10-21T15:26:08.018Z,99.90
2018-10-21T15:28:36.377Z,99.90
2018-10-21T15:31:04.833Z,99.90
2018-10-21T15:33:33.596Z,99.90
2018-10-21T15:36:02.600Z,99.90
2018-10-21T15:38:31.016Z,99.90
2018-10-21T15:40:59.495Z,99.90
2018-10-21T15:43:27.929Z,99.90
2018-10-21T15:45:56.457Z,99.90
2018-10-21T15:48:25.111Z,99.90
2018-10-21T15:50:53.576Z,99.90
2018-10-21T15:53:22.019Z,99.90
2018-10-21T15:55:50.512Z,99.90
2018-10-21T15:58:19.003Z,99.90
2018-10-21T16:00:47.404Z,99.90
2018-10-21T16:03:15.810Z,99.90
2018-10-21T16:05:44.225Z,99.90
2018-10-21T16:08:12.733Z,99.90
2018-10-21T16:10:41.124Z,99.90
2018-10-21T16:13:10.242Z,99.90
2018-10-21T16:15:38.627Z,99.90
2018-10-21T16:18:07.114Z,99.90
2018-10-21T16:20:35.486Z,99.90
2018-10-21T16:23:05.274Z,99.90
2018-10-21T16:25:33.834Z,99.90
2018-10-21T16:28:02.380Z,99.90
2018-10-21T16:30:30.749Z,99.90
2018-10-21T16:32:59.487Z,99.90
2018-10-21T16:35:28.127Z,99.90
2018-10-21T16:37:56.660Z,99.90
2018-10-21T16:40:25.118Z,99.90
2018-10-21T16:42:53.549Z,99.90
2018-10-21T16:45:22.023Z,99.90
2018-10-21T16:47:50.428Z,99.90
2018-10-21T16:50:18.813Z,99.90
2018-10-21T16:52:47.479Z,99.90
2018-10-21T16:55:16.763Z,99.90
2018-10-21T16:57:45.310Z,99.90
2018-10-21T17:00:15.064Z,99.90
2018-10-21T17:02:43.836Z,99.90
2018-10-21T17:05:12.323Z,99.90
2018-10-21T17:07:40.937Z,99.90
2018-10-21T17:10:10.298Z,99.90
2018-10-21T17:12:38.973Z,99.90
2018-10-21T17:15:08.533Z,99.90
2018-10-21T17:17:37.628Z,99.90
2018-10-21T17:20:09.426Z,99.90
2018-10-21T17:22:38.131Z,99.90
2018-10-21T17:25:06.701Z,99.90
2018-10-21T17:27:35.113Z,99.90
2018-10-21T17:30:03.798Z,99.90
2018-10-21T17:32:32.279Z,99.90
2018-10-21T17:35:00.790Z,99.90
2018-10-21T17:37:29.227Z,99.90
2018-10-21T17:39:57.794Z,99.90
2018-10-21T17:42:26.235Z,99.90
2018-10-21T17:44:54.687Z,99.90
2018-10-21T17:47:23.206Z,99.90
2018-10-21T17:49:51.683Z,99.90
2018-10-21T17:52:20.185Z,99.90
2018-10-21T17:54:48.656Z,99.90
2018-10-21T17:57:17.121Z,99.90
2018-10-21T17:59:45.490Z,99.90
2018-10-21T18:02:13.953Z,99.90
2018-10-21T18:04:42.423Z,99.90
2018-10-21T18:07:10.885Z,99.90
2018-10-21T18:09:39.321Z,99.90
2018-10-21T18:12:07.744Z,99.90
2018-10-21T18:14:36.652Z,99.90
2018-10-21T18:17:06.340Z,99.90
2018-10-21T18:19:34.760Z,99.90
2018-10-21T18:22:03.318Z,99.90
2018-10-21T18:24:31.759Z,99.90
2018-10-21T18:27:00.215Z,99.90
2018-10-21T18:29:28.622Z,99.90
2018-10-21T18:31:57.037Z,99.90
2018-10-21T18:34:25.470Z,99.90
2018-10-21T18:36:53.959Z,99.90
2018-10-21T18:39:22.492Z,99.90
2018-10-21T18:41:50.967Z,99.90
2018-10-21T18:44:19.393Z,99.90
2018-10-21T18:46:48.381Z,99.90
2018-10-21T18:49:16.937Z,99.90
2018-10-21T18:51:45.351Z,99.90
2018-10-21T18:54:13.808Z,99.90
2018-10-21T18:56:42.223Z,99.90
2018-10-21T18:59:10.718Z,99.90
2018-10-21T19:01:39.201Z,99.90
2018-10-21T19:04:07.612Z,99.90
2018-10-21T19:06:36.020Z,99.90
2018-10-21T19:09:07.522Z,99.90
2018-10-21T19:11:35.937Z,99.90
2018-10-21T19:14:04.359Z,99.90
2018-10-21T19:16:32.785Z,99.90
2018-10-21T19:19:01.271Z,99.90
2018-10-21T19:21:29.681Z,99.90
2018-10-21T19:23:58.084Z,99.90
2018-10-21T19:26:26.667Z,99.90
2018-10-21T19:28:55.101Z,99.90
2018-10-21T19:31:23.618Z,99.90
2018-10-21T19:33:52.144Z,99.90
2018-10-21T19:36:20.895Z,99.90
2018-10-21T19:38:49.352Z,99.90
2018-10-21T19:41:17.767Z,99.90
2018-10-21T19:43:46.189Z,99.90
2018-10-21T19:46:14.629Z,99.90
2018-10-21T19:48:43.075Z,99.90
2018-10-21T19:51:11.583Z,99.90
2018-10-21T19:53:40.021Z,99.90
2018-10-21T19:56:08.429Z,99.90
2018-10-21T19:58:37.724Z,99.90
2018-10-21T20:01:06.584Z,99.90
2018-10-21T20:03:35.037Z,99.90
2018-10-21T20:06:03.428Z,99.90
2018-10-21T20:08:31.955Z,99.90
2018-10-21T20:11:00.381Z,99.90
2018-10-21T20:13:28.792Z,99.90
2018-10-21T20:15:57.289Z,99.90
2018-10-21T20:18:25.729Z,99.90
2018-10-21T20:20:54.178Z,99.90
2018-10-21T20:23:22.599Z,99.90
2018-10-21T20:25:50.996Z,99.90
2018-10-21T20:28:20.266Z,99.90
2018-10-21T20:30:48.679Z,99.90
2018-10-21T20:33:17.148Z,99.90
2018-10-21T20:35:45.558Z,99.90
2018-10-21T20:38:14.054Z,99.90
2018-10-21T20:40:42.522Z,99.90
2018-10-21T20:43:10.994Z,99.90
2018-10-21T20:45:39.386Z,99.90
2018-10-21T20:48:08.153Z,99.90
2018-10-21T20:50:36.549Z,99.90
2018-10-21T20:53:05.294Z,99.90
2018-10-21T20:55:33.748Z,99.90
2018-10-21T20:58:02.247Z,99.90
2018-10-21T21:00:30.566Z,99.90
2018-10-21T21:02:58.946Z,99.90
2018-10-21T21:05:27.376Z,99.90
2018-10-21T21:07:56.110Z,99.90
2018-10-21T21:10:24.513Z,99.90
2018-10-21T21:12:52.902Z,99.90
2018-10-21T21:15:21.376Z,99.90
2018-10-21T21:17:49.790Z,99.90
2018-10-21T21:20:18.185Z,99.90
2018-10-21T21:22:46.579Z,99.90
2018-10-21T21:25:15.000Z,99.90
2018-10-21T21:27:43.389Z,99.90
2018-10-21T21:30:11.824Z,99.90
2018-10-21T21:32:40.239Z,99.90
2018-10-21T21:35:08.723Z,99.90
2018-10-21T21:37:37.419Z,99.90
2018-10-21T21:40:07.261Z,99.90
2018-10-21T21:42:35.624Z,99.90
2018-10-21T21:45:04.191Z,99.90
2018-10-21T21:47:32.656Z,99.90
2018-10-21T21:50:01.085Z,99.90
2018-10-21T21:52:29.523Z,99.90
2018-10-21T21:54:57.901Z,99.90
2018-10-21T21:57:26.279Z,99.90
2018-10-21T21:59:54.765Z,99.90
2018-10-21T22:02:23.205Z,99.90
2018-10-21T22:04:51.629Z,99.90
2018-10-21T22:07:20.011Z,99.90
2018-10-21T22:09:48.418Z,99.90
2018-10-21T22:12:16.956Z,99.90
2018-10-21T22:14:45.258Z,99.90
2018-10-21T22:17:13.664Z,99.90
2018-10-21T22:19:42.054Z,99.90
2018-10-21T22:22:10.570Z,99.90
2018-10-21T22:24:38.958Z,99.90
2018-10-21T22:27:07.554Z,99.90
2018-10-21T22:29:35.941Z,99.90
2018-10-21T22:32:04.381Z,99.90
2018-10-21T22:34:32.796Z,99.90
2018-10-21T22:37:01.232Z,99.90
2018-10-21T22:39:29.657Z,99.90
2018-10-21T22:41:58.146Z,99.90
2018-10-21T22:44:26.578Z,99.90
2018-10-21T22:46:54.957Z,99.90
2018-10-21T22:49:23.336Z,99.90
2018-10-21T22:51:51.922Z,99.90
2018-10-21T22:54:20.309Z,99.90
2018-10-21T22:56:49.004Z,99.90
2018-10-21T22:59:17.384Z,99.90
2018-10-21T23:01:45.763Z,99.90
2018-10-21T23:04:14.289Z,99.90
2018-10-21T23:06:42.508Z,99.90
2018-10-21T23:09:12.144Z,99.90
2018-10-21T23:11:40.972Z,99.90
2018-10-21T23:14:09.248Z,99.90
2018-10-21T23:16:37.873Z,99.90
2018-10-21T23:19:17.580Z,99.90
2018-10-21T23:21:46.027Z,99.90
2018-10-21T23:24:14.513Z,99.90
2018-10-21T23:26:42.837Z,99.90
2018-10-21T23:29:11.231Z,99.90
2018-10-21T23:31:39.656Z,99.90
2018-10-21T23:34:08.206Z,99.90
2018-10-21T23:36:36.876Z,99.90
2018-10-21T23:39:06.683Z,99.90
2018-10-21T23:41:35.082Z,99.90
2018-10-21T23:44:03.512Z,99.90
2018-10-21T23:46:31.948Z,99.90
2018-10-21T23:49:00.557Z,99.90
2018-10-21T23:51:28.963Z,99.90
2018-10-21T23:53:57.576Z,99.90
2018-10-21T23:56:26.352Z,99.90
2018-10-21T23:58:54.725Z,99.90
